Northeast, Indiana
Current Conditions -  °F | °C
As of 11:53 AM on Sunday 23 Nov 2014 (Local Time) from KBMG Reporting Station
Light Rain Light Rain  
Wind Chill: 51°   Ceiling: 2500
Heat Index: 51°   Visibility: 10mi
Dew Point: 49°   Wind: 8mph
Humidity: 92%   Direction: 140°SE
Pressure: 29.75"   Gusts: NA
Location:  38.6433°N, 86.4481°W
Report Text: KBMG 231653Z 14007KT 10SM -RA OVC025 11/09 A2975 RMK AO2 RAE09B47 PRESFR SLP073 P0002 T01060094
Loading
Personal Weather Stations






























Interactive Weather Map New forecast layout! Learn more

10-Day Weather Forecast

Advertisements
Track Severe Weather on mobile